Time;durP1;ratioP1;P1;durP2;ratioP2;P2;SDS_P1;SDS_P2;PMS_P1;PMS_P2;Temp;Humidity;BMP_temperature;BMP_pressure;BME280_temperature;BME280_humidity;BME280_pressure;Samples;Min_cycle;Max_cycle;Signal;HPM_P1;HPM_P2
2022/11/11 00:00:31;;;;;;;11.82;4.20;;;11.90;99.90;;;;;;4899288;29;20493;-76
2022/11/11 00:03:04;;;;;;;12.02;4.70;;;12.00;99.90;;;;;;4896191;29;20044;-80
2022/11/11 00:05:32;;;;;;;13.98;4.80;;;11.90;99.90;;;;;;4897497;29;20031;-74
2022/11/11 00:07:58;;;;;;;12.20;4.03;;;12.00;99.90;;;;;;4898130;29;20028;-72
2022/11/11 00:10:28;;;;;;;19.13;4.53;;;12.00;99.90;;;;;;4896942;29;20025;-77
2022/11/11 00:12:58;;;;;;;25.15;5.15;;;12.00;99.90;;;;;;4898346;29;20044;-76
2022/11/11 00:15:24;;;;;;;12.05;4.28;;;12.00;99.90;;;;;;4897812;29;20064;-72
2022/11/11 00:26:07;;;;;;;15.60;3.88;;;12.00;99.90;;;;;;4899353;29;20078;-73
2022/11/11 00:28:33;;;;;;;11.00;3.95;;;12.00;99.90;;;;;;4897417;29;20025;-76
2022/11/11 00:31:04;;;;;;;12.55;3.60;;;12.00;99.90;;;;;;4881576;29;20033;-74
2022/11/11 00:33:29;;;;;;;9.73;3.33;;;11.90;99.90;;;;;;4898597;29;20107;-76
2022/11/11 00:35:56;;;;;;;10.50;3.78;;;11.90;99.90;;;;;;4896093;29;20546;-74
2022/11/11 00:41:05;;;;;;;11.98;3.85;;;11.90;99.90;;;;;;4898022;29;20040;-76
2022/11/11 00:43:31;;;;;;;9.77;3.90;;;11.90;99.90;;;;;;4897087;29;20041;-76
2022/11/11 00:50:57;;;;;;;10.38;3.63;;;11.80;99.90;;;;;;4898347;29;20025;-74
2022/11/11 00:51:27;;;;;;;;;;;11.80;99.90;;;;;;4899222;29;21849;-73
2022/11/11 00:53:53;;;;;;;10.18;3.42;;;11.70;99.90;;;;;;4897415;29;19943;-74
2022/11/11 00:56:19;;;;;;;9.80;3.55;;;11.70;99.90;;;;;;4896748;29;20032;-78
2022/11/11 00:58:45;;;;;;;10.02;3.85;;;11.70;99.90;;;;;;4881557;29;20093;-74
2022/11/11 01:01:10;;;;;;;7.38;3.03;;;11.60;99.90;;;;;;4896850;29;20033;-74
2022/11/11 01:03:36;;;;;;;13.70;3.85;;;11.60;99.90;;;;;;4897599;29;20043;-75
2022/11/11 01:06:03;;;;;;;12.18;3.75;;;11.50;99.90;;;;;;4897886;29;20039;-75
2022/11/11 01:08:31;;;;;;;13.85;3.78;;;11.50;99.90;;;;;;4896013;29;20025;-75
2022/11/11 01:10:57;;;;;;;13.95;3.97;;;11.50;99.90;;;;;;4898212;29;20043;-75
2022/11/11 01:13:28;;;;;;;12.77;4.57;;;11.50;99.90;;;;;;4896074;29;20033;-74
2022/11/11 01:16:02;;;;;;;20.27;4.53;;;11.50;99.90;;;;;;4897737;29;20024;-73
2022/11/11 01:18:28;;;;;;;10.82;3.90;;;11.50;99.90;;;;;;4881338;29;20028;-73
2022/11/11 01:21:02;;;;;;;11.80;3.65;;;11.40;99.90;;;;;;4896774;29;20486;-75
2022/11/11 01:23:29;;;;;;;14.38;4.75;;;11.40;99.90;;;;;;4895860;29;20048;-77
2022/11/11 01:26:00;;;;;;;15.05;4.20;;;11.40;99.90;;;;;;4897861;29;20098;-76
2022/11/11 01:28:25;;;;;;;15.27;4.30;;;11.40;99.90;;;;;;4897691;29;20029;-75
2022/11/11 01:30:51;;;;;;;12.80;4.00;;;11.40;99.90;;;;;;4897432;29;20056;-76
2022/11/11 01:33:16;;;;;;;10.70;3.90;;;11.30;99.90;;;;;;4897298;29;20032;-77
2022/11/11 01:35:42;;;;;;;15.07;4.32;;;11.30;99.90;;;;;;4897234;29;20048;-76
2022/11/11 01:38:09;;;;;;;16.17;4.70;;;11.30;99.90;;;;;;4897001;29;20063;-77
2022/11/11 01:40:46;;;;;;;15.70;4.57;;;11.30;99.90;;;;;;4880473;29;20088;-75
2022/11/11 01:43:12;;;;;;;13.25;4.80;;;11.20;99.90;;;;;;4897025;29;20039;-73
2022/11/11 01:45:59;;;;;;;14.23;4.40;;;11.20;99.90;;;;;;4896926;29;20487;-73
2022/11/11 01:51:30;;;;;;;12.60;5.13;;;11.20;99.90;;;;;;4895304;29;20036;-73
2022/11/11 01:53:59;;;;;;;10.80;4.72;;;11.10;99.90;;;;;;4896769;29;20112;-74
2022/11/11 01:56:26;;;;;;;11.60;5.22;;;11.10;99.90;;;;;;4897140;29;20043;-74
2022/11/11 01:58:56;;;;;;;12.50;5.63;;;11.10;99.90;;;;;;4879602;29;20096;-73
2022/11/11 02:01:22;;;;;;;14.20;4.95;;;11.10;99.90;;;;;;4897424;29;20092;-76
2022/11/11 02:06:35;;;;;;;14.05;5.63;;;11.10;99.90;;;;;;4896483;29;20032;-74
2022/11/11 02:09:03;;;;;;;18.88;6.75;;;11.10;99.90;;;;;;4896799;29;20108;-76
2022/11/11 02:14:35;;;;;;;14.32;6.15;;;11.10;99.90;;;;;;4897514;29;20044;-75
2022/11/11 02:17:19;;;;;;;14.57;5.65;;;11.10;99.90;;;;;;4897153;29;20168;-72
2022/11/11 02:19:52;;;;;;;12.07;5.72;;;11.10;99.90;;;;;;4879810;29;20029;-72
2022/11/11 02:22:37;;;;;;;19.27;6.75;;;11.10;99.90;;;;;;4879788;29;20100;-73
2022/11/11 02:25:05;;;;;;;13.30;6.43;;;11.10;99.90;;;;;;4878892;29;20049;-71
2022/11/11 02:27:35;;;;;;;17.17;6.45;;;11.10;99.90;;;;;;4894953;29;20025;-73
2022/11/11 02:30:05;;;;;;;14.68;5.85;;;11.10;99.90;;;;;;4887541;29;20029;-73
2022/11/11 02:32:31;;;;;;;20.00;6.07;;;11.10;99.90;;;;;;4896723;29;20061;-73
2022/11/11 02:34:59;;;;;;;19.00;6.88;;;11.10;99.90;;;;;;4896513;29;20029;-75
2022/11/11 02:37:26;;;;;;;16.42;6.60;;;11.10;99.90;;;;;;4879412;29;20049;-74
2022/11/11 02:39:58;;;;;;;15.65;7.43;;;11.00;99.90;;;;;;4894384;29;20037;-74
2022/11/11 02:42:24;;;;;;;20.60;7.20;;;11.00;99.90;;;;;;4879986;29;20051;-75
2022/11/11 02:44:49;;;;;;;20.67;7.20;;;11.00;99.90;;;;;;4879114;29;20116;-75
2022/11/11 02:47:15;;;;;;;21.77;6.97;;;11.00;99.90;;;;;;4896760;29;20028;-75
2022/11/11 02:49:41;;;;;;;19.90;8.18;;;11.00;99.90;;;;;;4879803;29;20482;-74
2022/11/11 02:52:06;;;;;;;20.33;7.65;;;11.00;99.90;;;;;;4879138;29;20081;-73
2022/11/11 02:54:32;;;;;;;16.80;7.15;;;11.00;99.90;;;;;;4895241;29;20084;-76
2022/11/11 02:57:06;;;;;;;23.50;7.47;;;11.10;99.90;;;;;;4896664;29;20044;-73
2022/11/11 02:59:33;;;;;;;22.20;7.38;;;11.00;99.90;;;;;;4896184;29;20024;-73
2022/11/11 03:01:59;;;;;;;23.58;7.60;;;11.00;99.90;;;;;;4896457;29;20065;-73
2022/11/11 03:04:25;;;;;;;23.67;7.70;;;11.10;99.90;;;;;;4896400;29;20037;-76
2022/11/11 03:06:50;;;;;;;20.73;7.18;;;11.00;99.90;;;;;;4896147;29;20044;-77
2022/11/11 03:09:22;;;;;;;16.67;7.18;;;11.00;99.90;;;;;;4896679;29;20144;-76
2022/11/11 03:11:47;;;;;;;23.45;7.57;;;11.00;99.90;;;;;;4879713;29;20033;-73
2022/11/11 03:14:13;;;;;;;17.98;7.68;;;11.00;99.90;;;;;;4879042;29;20101;-76
2022/11/11 03:19:23;;;;;;;20.25;7.30;;;11.00;99.90;;;;;;4895810;29;20097;-74
2022/11/11 03:21:48;;;;;;;22.10;7.90;;;11.00;99.90;;;;;;4895917;29;20028;-76
2022/11/11 03:24:14;;;;;;;18.27;6.82;;;11.00;99.90;;;;;;4896738;29;20075;-73
2022/11/11 03:26:39;;;;;;;18.30;6.45;;;10.90;99.90;;;;;;4882235;29;20033;-75
2022/11/11 03:29:05;;;;;;;20.50;8.07;;;10.90;99.90;;;;;;4899643;29;20036;-76
2022/11/11 03:31:31;;;;;;;20.70;7.07;;;10.90;99.90;;;;;;4897870;29;20025;-75
2022/11/11 03:34:16;;;;;;;19.33;7.43;;;10.90;99.90;;;;;;4899471;29;20028;-75
2022/11/11 03:39:27;;;;;;;20.00;7.70;;;10.90;99.90;;;;;;4899800;29;20061;-74
2022/11/11 03:41:53;;;;;;;28.63;7.70;;;10.90;99.90;;;;;;4899082;29;20025;-75
2022/11/11 03:44:19;;;;;;;21.98;7.70;;;10.90;99.90;;;;;;4898321;29;20025;-77
2022/11/11 03:46:44;;;;;;;20.15;7.50;;;10.90;99.90;;;;;;4899299;29;20036;-75
2022/11/11 03:49:10;;;;;;;22.40;7.28;;;10.90;99.90;;;;;;4899244;29;20037;-74
2022/11/11 03:51:36;;;;;;;17.98;7.25;;;10.80;99.90;;;;;;4898761;29;20025;-74
2022/11/11 03:54:01;;;;;;;17.38;7.28;;;10.80;99.90;;;;;;4899232;29;20034;-75
2022/11/11 03:56:27;;;;;;;15.05;7.68;;;10.80;99.90;;;;;;4898083;29;20025;-76
2022/11/11 03:58:52;;;;;;;17.70;7.38;;;10.80;99.90;;;;;;4899068;29;20025;-73
2022/11/11 04:12:15;;;;;;;20.38;7.65;;;10.70;99.90;;;;;;4898939;29;20130;-76
2022/11/11 04:17:25;;;;;;;17.77;7.00;;;10.70;99.90;;;;;;4899155;29;20028;-74
2022/11/11 04:22:41;;;;;;;22.13;7.97;;;10.70;99.90;;;;;;4898764;29;20040;-76
2022/11/11 04:29:27;;;;;;;;;;;10.70;99.90;;;;;;4899166;29;20044;-74
2022/11/11 04:30:45;;;;;;;18.60;7.55;;;10.70;99.90;;;;;;4898562;29;20364;-75
2022/11/11 04:33:10;;;;;;;18.75;8.02;;;10.70;99.90;;;;;;4898769;29;20088;-76
2022/11/11 04:35:36;;;;;;;16.88;7.82;;;10.60;99.90;;;;;;4897269;29;20072;-76
2022/11/11 04:41:04;;;;;;;19.02;7.72;;;10.60;99.90;;;;;;4898012;29;20116;-76
2022/11/11 04:46:15;;;;;;;16.88;8.20;;;10.60;99.90;;;;;;4899169;29;20279;-73
2022/11/11 04:48:41;;;;;;;15.98;8.43;;;10.60;99.90;;;;;;4897679;29;20112;-75
2022/11/11 04:51:06;;;;;;;22.13;8.27;;;10.60;99.90;;;;;;4897884;29;20025;-75
2022/11/11 04:53:32;;;;;;;20.58;8.05;;;10.60;99.90;;;;;;4895871;29;20039;-78
2022/11/11 04:58:42;;;;;;;23.15;9.05;;;10.50;99.90;;;;;;4898666;29;20048;-75
2022/11/11 05:03:14;;;;;;;23.80;9.23;;;10.50;99.90;;;;;;4897837;29;20029;-75
2022/11/11 05:03:56;;;;;;;20.48;9.57;;;10.50;99.90;;;;;;4897405;29;20041;-74
2022/11/11 05:09:05;;;;;;;23.90;9.80;;;10.50;99.90;;;;;;4897602;29;20044;-78
2022/11/11 05:11:33;;;;;;;21.00;9.38;;;10.50;99.90;;;;;;4898484;29;20115;-75
2022/11/11 05:22:23;;;;;;;22.95;9.60;;;10.40;99.90;;;;;;4897667;29;20052;-74
2022/11/11 05:27:33;;;;;;;23.98;9.77;;;10.50;99.90;;;;;;4898324;29;20112;-76
2022/11/11 05:29:59;;;;;;;21.55;9.95;;;10.40;99.90;;;;;;4880955;29;20493;-76
2022/11/11 05:32:25;;;;;;;27.17;10.88;;;10.50;99.90;;;;;;4895449;29;20020;-74
2022/11/11 05:34:51;;;;;;;25.55;11.23;;;10.40;99.90;;;;;;4880888;29;20071;-75
2022/11/11 05:37:17;;;;;;;27.05;12.20;;;10.40;99.90;;;;;;4880258;29;20029;-75
2022/11/11 05:39:43;;;;;;;31.13;12.20;;;10.40;99.90;;;;;;4897290;29;20039;-75
2022/11/11 05:42:10;;;;;;;33.90;12.80;;;10.40;99.90;;;;;;4897502;29;20045;-77
2022/11/11 05:44:36;;;;;;;27.00;12.10;;;10.40;99.90;;;;;;4880031;29;20017;-75
2022/11/11 05:47:01;;;;;;;24.50;12.18;;;10.40;99.90;;;;;;4881195;29;20115;-77
2022/11/11 05:49:27;;;;;;;29.13;12.27;;;10.40;99.90;;;;;;4879556;29;20033;-74
2022/11/11 05:51:56;;;;;;;31.63;14.15;;;10.50;99.90;;;;;;4896715;29;20037;-73
2022/11/11 05:54:23;;;;;;;36.72;14.23;;;10.40;99.90;;;;;;4896952;29;20041;-76
2022/11/11 05:56:48;;;;;;;27.83;13.48;;;10.50;99.90;;;;;;4895544;29;20088;-75
2022/11/11 05:59:14;;;;;;;34.17;14.52;;;10.40;99.90;;;;;;4895929;29;20113;-75
2022/11/11 06:01:40;;;;;;;33.75;14.75;;;10.50;99.90;;;;;;4879796;29;20419;-76
2022/11/11 06:04:06;;;;;;;33.10;14.95;;;10.50;99.90;;;;;;4897053;29;20044;-75
2022/11/11 06:06:33;;;;;;;30.25;14.60;;;10.50;99.90;;;;;;4896694;29;20033;-76
2022/11/11 06:08:58;;;;;;;39.25;14.90;;;10.50;99.90;;;;;;4897028;29;20024;-75
2022/11/11 06:11:24;;;;;;;37.05;15.38;;;10.50;99.90;;;;;;4897355;29;20040;-76
2022/11/11 06:13:50;;;;;;;39.03;16.05;;;10.50;99.90;;;;;;4896947;29;20033;-78
2022/11/11 06:16:16;;;;;;;30.35;15.32;;;10.50;99.90;;;;;;4880723;29;20085;-78
2022/11/11 06:18:42;;;;;;;41.80;16.77;;;10.50;99.90;;;;;;4879895;29;20033;-76
2022/11/11 06:21:08;;;;;;;32.58;15.52;;;10.50;99.90;;;;;;4894946;29;20039;-78
2022/11/11 06:23:33;;;;;;;32.08;15.90;;;10.50;99.90;;;;;;4879791;29;20076;-78
2022/11/11 06:26:11;;;;;;;35.13;14.65;;;10.50;99.90;;;;;;4897740;29;20050;-74
2022/11/11 06:28:49;;;;;;;29.35;15.15;;;10.50;99.90;;;;;;4895353;29;20032;-75
2022/11/11 06:31:20;;;;;;;29.27;14.65;;;10.50;99.90;;;;;;4895382;29;20502;-76
2022/11/11 06:33:46;;;;;;;32.33;16.83;;;10.50;99.90;;;;;;4897244;29;20382;-78
2022/11/11 06:36:14;;;;;;;39.33;16.75;;;10.60;99.90;;;;;;4879615;29;20021;-74
2022/11/11 06:38:40;;;;;;;39.42;16.98;;;10.60;99.90;;;;;;4896137;29;20078;-76
2022/11/11 06:41:07;;;;;;;38.92;16.20;;;10.60;99.90;;;;;;4880851;29;20032;-76
2022/11/11 06:43:33;;;;;;;38.75;16.38;;;10.60;99.90;;;;;;4894992;29;20041;-74
2022/11/11 06:45:59;;;;;;;36.03;17.00;;;10.60;99.90;;;;;;4897189;29;20508;-74
2022/11/11 06:48:26;;;;;;;42.55;16.88;;;10.60;99.90;;;;;;4879919;29;20044;-74
2022/11/11 06:50:53;;;;;;;39.47;17.08;;;10.60;99.90;;;;;;4881710;29;20307;-79
2022/11/11 06:53:20;;;;;;;42.72;17.02;;;10.60;99.90;;;;;;4896323;29;20084;-73
2022/11/11 06:55:45;;;;;;;45.55;19.42;;;10.60;99.90;;;;;;4911078;29;20033;-77
2022/11/11 06:58:16;;;;;;;47.38;19.30;;;10.60;99.90;;;;;;4879614;29;20580;-77
2022/11/11 07:00:44;;;;;;;44.40;18.33;;;10.60;99.90;;;;;;4898993;29;20416;-77
2022/11/11 07:03:12;;;;;;;46.92;19.58;;;10.60;99.90;;;;;;4900360;29;20037;-76
2022/11/11 07:05:38;;;;;;;33.15;17.83;;;10.70;99.90;;;;;;4884188;29;20021;-75
2022/11/11 07:08:06;;;;;;;35.95;17.90;;;10.70;99.90;;;;;;4883734;29;20052;-80
2022/11/11 07:10:33;;;;;;;42.42;17.10;;;10.70;99.90;;;;;;4898872;29;20029;-79
2022/11/11 07:12:59;;;;;;;41.08;17.30;;;10.70;99.90;;;;;;4883295;29;20478;-79
2022/11/11 07:15:25;;;;;;;51.28;19.05;;;10.70;99.90;;;;;;4882879;29;20027;-77
2022/11/11 07:17:51;;;;;;;42.00;18.33;;;10.70;99.90;;;;;;4899041;29;20036;-77
2022/11/11 07:20:17;;;;;;;44.75;18.13;;;10.70;99.90;;;;;;4883609;29;20053;-75
2022/11/11 07:22:43;;;;;;;47.45;19.42;;;10.70;99.90;;;;;;4901389;29;20044;-78
2022/11/11 07:25:08;;;;;;;38.75;18.90;;;10.70;99.90;;;;;;4901758;29;20048;-76
2022/11/11 07:27:41;;;;;;;42.20;18.77;;;10.70;99.90;;;;;;4885140;29;20025;-76
2022/11/11 07:30:09;;;;;;;41.78;18.05;;;10.80;99.90;;;;;;4901692;29;20100;-74
2022/11/11 07:32:35;;;;;;;44.33;18.55;;;10.80;99.90;;;;;;4884542;29;20032;-78
2022/11/11 07:37:38;;;;;;;43.75;18.90;;;10.80;99.90;;;;;;5086716;27;1316250;-77
2022/11/11 07:40:04;;;;;;;49.00;19.30;;;10.80;99.90;;;;;;5092056;28;20032;-80
2022/11/11 07:42:29;;;;;;;44.33;18.83;;;10.80;99.90;;;;;;5092223;28;20032;-75
2022/11/11 07:44:55;;;;;;;44.70;18.10;;;10.80;99.90;;;;;;5110242;28;20041;-77
2022/11/11 07:47:21;;;;;;;41.13;17.45;;;10.80;99.90;;;;;;5095651;28;20043;-81
2022/11/11 07:49:46;;;;;;;42.55;18.40;;;10.80;99.90;;;;;;5092558;28;20051;-77
2022/11/11 07:52:12;;;;;;;41.78;18.95;;;10.80;99.90;;;;;;5092575;28;20107;-77
2022/11/11 07:54:38;;;;;;;44.20;18.25;;;10.80;99.90;;;;;;5092856;28;20016;-76
2022/11/11 07:57:03;;;;;;;43.13;18.60;;;10.80;99.90;;;;;;5110851;28;20036;-76
2022/11/11 07:59:29;;;;;;;37.15;16.80;;;10.90;99.90;;;;;;5092165;28;20051;-78
2022/11/11 08:01:54;;;;;;;39.70;19.15;;;10.80;99.90;;;;;;5092152;28;20024;-75
2022/11/11 08:04:20;;;;;;;40.17;18.90;;;10.90;99.90;;;;;;5109873;28;20028;-75
2022/11/11 08:06:46;;;;;;;40.88;18.70;;;10.90;99.90;;;;;;5094142;28;20039;-71
2022/11/11 08:09:11;;;;;;;38.47;19.17;;;10.90;99.90;;;;;;5108611;28;20051;-79
2022/11/11 08:14:25;;;;;;;34.70;17.85;;;10.90;99.90;;;;;;5090001;28;20040;-77
2022/11/11 08:16:52;;;;;;;37.95;18.55;;;10.90;99.90;;;;;;5110729;28;20105;-74
2022/11/11 08:19:17;;;;;;;43.08;18.25;;;10.90;99.90;;;;;;5111133;28;20032;-73
2022/11/11 08:21:43;;;;;;;41.50;19.90;;;10.90;99.90;;;;;;5109003;28;20028;-77
2022/11/11 08:24:09;;;;;;;44.45;20.55;;;10.90;99.90;;;;;;5103977;28;20027;-74
2022/11/11 08:26:35;;;;;;;41.10;19.25;;;10.90;99.90;;;;;;5090531;28;20043;-78
2022/11/11 08:29:01;;;;;;;46.55;20.83;;;10.90;99.90;;;;;;5090945;28;20016;-79
2022/11/11 08:31:26;;;;;;;44.55;20.92;;;10.90;99.90;;;;;;5108734;28;20038;-78
2022/11/11 08:33:52;;;;;;;39.50;18.08;;;10.90;99.90;;;;;;5108654;28;20031;-74
2022/11/11 08:36:18;;;;;;;39.03;20.95;;;10.90;99.90;;;;;;5090619;28;20048;-75
2022/11/11 08:38:43;;;;;;;38.13;19.50;;;10.90;99.90;;;;;;5108361;28;20044;-76
2022/11/11 08:41:09;;;;;;;40.05;18.90;;;10.90;99.90;;;;;;5105546;28;20024;-79
2022/11/11 08:43:35;;;;;;;46.42;19.98;;;10.90;99.90;;;;;;5090338;28;20020;-77
2022/11/11 08:46:05;;;;;;;43.17;19.52;;;10.90;99.90;;;;;;5089970;28;20031;-79
2022/11/11 08:48:32;;;;;;;41.83;19.13;;;10.90;99.90;;;;;;5079007;28;20027;-76
2022/11/11 08:50:58;;;;;;;42.80;18.55;;;10.90;99.90;;;;;;5073168;28;20041;-77
2022/11/11 08:53:23;;;;;;;44.95;20.02;;;10.80;99.90;;;;;;5094348;28;20024;-77
2022/11/11 08:55:49;;;;;;;37.38;18.55;;;10.90;99.90;;;;;;5092079;28;20226;-76
2022/11/11 08:58:21;;;;;;;39.58;18.50;;;10.80;99.90;;;;;;5074753;28;20047;-77
2022/11/11 09:00:47;;;;;;;41.92;20.00;;;10.90;99.90;;;;;;5089488;28;20036;-79
2022/11/11 09:03:13;;;;;;;40.25;18.48;;;10.90;99.90;;;;;;5073292;28;20087;-76
2022/11/11 09:05:39;;;;;;;37.30;18.98;;;10.90;99.90;;;;;;5092668;28;20032;-75
2022/11/11 09:08:07;;;;;;;36.17;19.05;;;10.90;99.90;;;;;;5075576;28;20040;-76
2022/11/11 09:10:35;;;;;;;47.25;21.05;;;10.90;99.90;;;;;;5093882;28;20082;-78
2022/11/11 09:13:01;;;;;;;51.58;21.27;;;10.90;99.90;;;;;;5077102;28;20028;-74
2022/11/11 09:15:31;;;;;;;38.80;18.70;;;10.90;99.90;;;;;;5094431;28;20046;-78
2022/11/11 09:17:56;;;;;;;40.80;19.77;;;10.90;99.90;;;;;;5076298;28;20020;-75
2022/11/11 09:20:23;;;;;;;42.13;16.63;;;10.90;99.90;;;;;;5076352;28;20054;-72
2022/11/11 09:22:49;;;;;;;41.78;19.30;;;10.90;99.90;;;;;;5093693;28;20043;-78
2022/11/11 09:25:16;;;;;;;46.95;20.00;;;11.00;99.90;;;;;;5072702;28;20078;-80
2022/11/11 09:27:42;;;;;;;36.25;18.58;;;11.00;99.90;;;;;;5070848;28;20152;-78
2022/11/11 09:30:09;;;;;;;37.92;17.63;;;11.00;99.90;;;;;;5073110;28;20032;-76
2022/11/11 09:32:35;;;;;;;39.67;18.05;;;11.00;99.90;;;;;;5090640;28;20028;-76
2022/11/11 09:35:02;;;;;;;34.75;17.90;;;11.00;99.90;;;;;;5075704;28;20473;-78
2022/11/11 09:37:28;;;;;;;40.28;18.23;;;11.00;99.90;;;;;;5072902;28;20055;-78
2022/11/11 09:39:55;;;;;;;41.10;18.40;;;11.00;99.90;;;;;;5068042;28;20024;-77
2022/11/11 09:42:39;;;;;;;35.42;18.65;;;11.00;99.90;;;;;;5071270;28;20047;-75
2022/11/11 09:45:17;;;;;;;38.53;18.30;;;11.00;99.90;;;;;;5070739;28;20031;-78
2022/11/11 09:48:13;;;;;;;39.10;18.95;;;11.00;99.90;;;;;;5089311;28;20036;-77
2022/11/11 09:50:40;;;;;;;37.65;18.92;;;11.00;99.90;;;;;;5071700;28;20051;-78
2022/11/11 09:53:06;;;;;;;42.90;20.00;;;11.00;99.90;;;;;;5074388;28;20035;-78
2022/11/11 09:55:43;;;;;;;45.08;18.42;;;11.00;99.90;;;;;;5069540;28;20040;-79
2022/11/11 09:58:24;;;;;;;36.97;19.15;;;11.00;99.90;;;;;;5092338;28;20051;-79
2022/11/11 10:01:04;;;;;;;38.50;18.85;;;11.00;99.90;;;;;;5093038;28;20603;-77
2022/11/11 10:03:38;;;;;;;45.15;19.67;;;11.00;99.90;;;;;;5090426;28;20054;-77
2022/11/11 10:06:21;;;;;;;35.03;17.80;;;11.00;99.90;;;;;;5070376;28;20032;-77
2022/11/11 10:09:03;;;;;;;39.28;19.23;;;11.00;99.90;;;;;;5070544;28;20024;-79
2022/11/11 10:11:35;;;;;;;43.90;19.95;;;11.00;99.90;;;;;;5073701;28;20117;-74
2022/11/11 10:14:01;;;;;;;36.28;18.92;;;11.00;99.90;;;;;;5072329;28;20036;-74
2022/11/11 10:16:26;;;;;;;44.80;19.98;;;11.00;99.90;;;;;;5089336;28;20037;-79
2022/11/11 10:19:03;;;;;;;42.55;20.27;;;11.00;99.90;;;;;;5069864;28;20162;-78
2022/11/11 10:21:42;;;;;;;36.33;18.67;;;11.00;99.90;;;;;;5072754;28;20061;-82
2022/11/11 10:24:15;;;;;;;41.42;19.15;;;11.00;99.90;;;;;;5073685;28;20047;-76
2022/11/11 10:26:44;;;;;;;42.42;20.08;;;11.00;99.90;;;;;;5091256;28;20090;-74
2022/11/11 10:29:21;;;;;;;43.60;20.67;;;11.00;99.90;;;;;;5074206;28;20031;-80
2022/11/11 10:32:19;;;;;;;44.90;20.58;;;11.00;99.90;;;;;;5074021;28;20023;-77
2022/11/11 10:34:45;;;;;;;41.03;19.98;;;11.00;99.90;;;;;;5071654;28;20100;-78
2022/11/11 10:37:41;;;;;;;41.88;18.88;;;11.00;99.90;;;;;;5070358;28;20079;-76
2022/11/11 10:40:28;;;;;;;40.97;18.58;;;11.00;99.90;;;;;;5065863;28;20054;-78
2022/11/11 10:42:53;;;;;;;45.20;19.23;;;11.00;99.90;;;;;;5071089;28;20063;-79
2022/11/11 10:45:34;;;;;;;39.85;20.30;;;11.00;99.90;;;;;;5070318;28;20024;-77
2022/11/11 10:48:11;;;;;;;37.75;19.73;;;11.00;99.90;;;;;;5068223;28;20127;-76
2022/11/11 10:50:51;;;;;;;33.13;17.75;;;11.00;99.90;;;;;;5072017;28;20124;-78
2022/11/11 10:53:26;;;;;;;40.00;17.55;;;11.00;99.90;;;;;;5072221;28;20492;-77
2022/11/11 10:56:01;;;;;;;43.67;17.20;;;11.00;99.90;;;;;;5067066;28;20040;-79
2022/11/11 10:58:34;;;;;;;34.97;16.67;;;11.00;99.90;;;;;;5070721;28;20030;-79
2022/11/11 11:01:03;;;;;;;34.88;15.93;;;11.10;99.90;;;;;;5063987;28;20020;-77
2022/11/11 11:03:38;;;;;;;30.98;16.77;;;11.10;99.90;;;;;;5069206;28;20047;-78
2022/11/11 11:06:30;;;;;;;34.58;15.88;;;11.10;99.90;;;;;;5065123;28;20029;-79
2022/11/11 11:09:14;;;;;;;35.80;15.25;;;11.10;99.90;;;;;;5065866;28;20140;-76
2022/11/11 11:12:23;;;;;;;37.45;16.40;;;11.10;99.90;;;;;;5068752;28;20025;-76
2022/11/11 11:14:57;;;;;;;33.95;16.65;;;11.10;99.90;;;;;;5065785;28;20067;-75
2022/11/11 11:17:56;;;;;;;34.15;16.33;;;11.10;99.90;;;;;;5065762;28;20037;-78
2022/11/11 11:20:22;;;;;;;37.50;17.20;;;11.10;99.90;;;;;;5065154;28;20144;-78
2022/11/11 11:22:51;;;;;;;34.05;17.05;;;11.10;99.90;;;;;;5066500;28;20057;-77
2022/11/11 11:25:21;;;;;;;31.25;15.93;;;11.20;99.90;;;;;;5058572;28;20029;-75
2022/11/11 11:27:50;;;;;;;39.17;17.50;;;11.20;99.90;;;;;;5066306;28;20032;-80
2022/11/11 11:30:22;;;;;;;32.85;16.23;;;11.20;99.90;;;;;;5069567;28;20029;-76
2022/11/11 11:33:02;;;;;;;33.20;16.05;;;11.30;99.90;;;;;;5069058;28;20425;-76
2022/11/11 11:53:14;;;;;;;31.90;15.20;;;11.40;99.90;;;;;;5048473;23;20528;-77
2022/11/11 11:55:49;;;;;;;36.40;15.32;;;11.40;99.90;;;;;;5020512;28;20038;-77
2022/11/11 11:58:54;;;;;;;31.90;15.05;;;11.40;99.90;;;;;;5017733;28;20037;-76
2022/11/11 12:04:33;;;;;;;28.08;16.58;;;11.70;99.90;;;;;;5157117;22;20057;-76
2022/11/11 12:07:18;;;;;;;31.85;15.10;;;11.80;99.90;;;;;;5038198;28;20127;-75
2022/11/11 12:10:02;;;;;;;31.02;12.95;;;12.10;99.90;;;;;;5035944;28;20079;-80
2022/11/11 12:12:39;;;;;;;26.35;11.90;;;12.40;99.90;;;;;;5045805;28;20026;-71
2022/11/11 12:15:32;;;;;;;19.42;10.88;;;12.70;99.90;;;;;;5038459;28;20025;-76
2022/11/11 12:18:25;;;;;;;20.65;10.70;;;13.10;99.90;;;;;;5037931;28;20588;-74
2022/11/11 12:21:12;;;;;;;18.40;10.48;;;13.40;99.90;;;;;;5032797;28;20043;-78
2022/11/11 12:23:44;;;;;;;21.85;11.55;;;13.70;99.90;;;;;;5038081;28;20401;-77
2022/11/11 12:26:16;;;;;;;17.92;9.88;;;13.80;99.90;;;;;;5037054;28;20092;-76
2022/11/11 12:29:07;;;;;;;22.35;10.18;;;13.90;99.90;;;;;;5046409;28;20051;-76
2022/11/11 12:32:01;;;;;;;19.30;10.48;;;13.90;99.90;;;;;;5053476;28;20046;-76
2022/11/11 12:34:48;;;;;;;16.45;10.32;;;13.90;99.90;;;;;;5033964;28;20648;-78
2022/11/11 12:37:24;;;;;;;25.25;10.23;;;13.80;99.90;;;;;;5049775;28;20570;-75
2022/11/11 12:40:15;;;;;;;18.73;9.68;;;13.80;99.90;;;;;;5053349;28;20428;-77
2022/11/11 12:42:47;;;;;;;19.83;8.55;;;13.80;99.90;;;;;;5043135;28;20029;-75
2022/11/11 12:45:34;;;;;;;21.10;9.20;;;13.90;99.90;;;;;;5044446;28;20085;-77
2022/11/11 12:48:29;;;;;;;18.48;8.32;;;13.90;99.90;;;;;;5039906;28;20047;-77
2022/11/11 12:51:24;;;;;;;14.20;7.47;;;14.00;99.90;;;;;;4982293;28;20035;-76
2022/11/11 12:54:11;;;;;;;13.38;7.15;;;14.10;99.90;;;;;;5037058;28;20085;-76
2022/11/11 12:57:15;;;;;;;16.55;7.13;;;14.30;99.90;;;;;;5038887;28;20041;-77
2022/11/11 13:00:02;;;;;;;17.33;6.68;;;14.40;99.90;;;;;;5037534;28;21597;-78
2022/11/11 13:02:52;;;;;;;15.02;5.95;;;14.50;99.90;;;;;;5039501;28;20037;-77
2022/11/11 13:05:33;;;;;;;16.75;5.85;;;14.60;99.90;;;;;;5039413;28;20079;-76
2022/11/11 13:08:07;;;;;;;17.42;5.68;;;14.80;99.90;;;;;;5052972;28;20036;-77
2022/11/11 13:10:52;;;;;;;13.18;5.97;;;15.00;99.90;;;;;;5053381;28;20056;-76
2022/11/11 13:13:39;;;;;;;14.02;5.68;;;15.20;99.90;;;;;;5054414;28;20021;-80
2022/11/11 13:16:07;;;;;;;12.98;5.40;;;15.30;99.90;;;;;;5040663;28;20049;-78
2022/11/11 13:18:50;;;;;;;16.08;5.82;;;15.40;99.90;;;;;;5041355;28;20052;-79
2022/11/11 13:22:00;;;;;;;11.60;4.97;;;15.30;99.90;;;;;;5119525;27;20384;-75
2022/11/11 13:24:27;;;;;;;19.15;4.82;;;15.30;99.90;;;;;;5119616;28;20053;-75
2022/11/11 13:27:31;;;;;;;10.70;5.03;;;15.40;99.90;;;;;;5119490;28;20032;-77
2022/11/11 13:30:06;;;;;;;13.93;5.10;;;15.50;99.90;;;;;;5099835;28;20020;-76
2022/11/11 13:32:47;;;;;;;17.40;5.88;;;15.70;99.90;;;;;;5099639;28;20269;-74
2022/11/11 13:35:39;;;;;;;12.52;5.32;;;15.80;99.90;;;;;;5117002;28;20039;-79
2022/11/11 13:38:06;;;;;;;12.98;4.90;;;16.00;99.90;;;;;;5095882;28;20032;-77
2022/11/11 13:40:44;;;;;;;13.07;5.15;;;16.10;99.90;;;;;;5118471;28;20044;-79
2022/11/11 13:43:44;;;;;;;15.73;5.25;;;16.20;99.90;;;;;;5100188;28;20032;-80
2022/11/11 13:46:34;;;;;;;10.98;5.40;;;16.20;99.90;;;;;;5104962;28;20044;-78
2022/11/11 13:49:02;;;;;;;15.02;4.82;;;16.10;99.90;;;;;;5118770;28;20040;-76
2022/11/11 13:51:36;;;;;;;12.15;5.20;;;15.80;99.90;;;;;;5100035;28;20020;-81
2022/11/11 13:54:24;;;;;;;13.15;5.43;;;15.50;99.90;;;;;;5099345;28;20091;-76
2022/11/11 13:56:51;;;;;;;13.95;4.85;;;15.20;99.90;;;;;;5100341;28;20110;-77
2022/11/11 13:59:30;;;;;;;12.18;5.43;;;15.10;99.90;;;;;;5100709;28;20106;-79
2022/11/11 14:02:34;;;;;;;8.68;5.30;;;14.90;99.90;;;;;;5116683;28;20107;-78
2022/11/11 14:05:07;;;;;;;13.38;5.07;;;14.70;99.90;;;;;;5037034;28;20041;-75
2022/11/11 14:07:47;;;;;;;11.60;5.00;;;14.60;99.90;;;;;;5105048;28;20077;-74
2022/11/11 14:10:18;;;;;;;10.52;4.80;;;14.50;99.90;;;;;;5112268;28;20044;-76
2022/11/11 14:13:00;;;;;;;11.20;5.20;;;14.40;99.90;;;;;;5114373;28;20043;-74
2022/11/11 14:15:49;;;;;;;9.43;5.05;;;14.30;99.90;;;;;;5110413;28;20041;-77
2022/11/11 14:18:17;;;;;;;12.70;4.68;;;14.20;99.90;;;;;;5114589;28;20039;-74
2022/11/11 14:20:47;;;;;;;16.10;5.45;;;14.20;99.90;;;;;;5117113;28;20483;-75
2022/11/11 14:23:25;;;;;;;12.35;5.13;;;14.20;99.90;;;;;;5116122;28;20031;-76
2022/11/11 14:26:25;;;;;;;9.65;5.32;;;14.10;99.90;;;;;;5114489;28;20464;-76
2022/11/11 14:29:04;;;;;;;13.60;5.53;;;14.10;99.90;;;;;;5117844;28;20024;-75
2022/11/11 14:31:48;;;;;;;17.80;8.18;;;14.10;99.90;;;;;;5110073;28;20056;-76